Leroy, North Dakota
Current Conditions -  °F | °C
As of 4:15 PM on Sunday 23 Nov 2014 (Local Time) from K2C8 Reporting Station
Light Snow Light Snow  
Wind Chill:   Ceiling: 1000
Heat Index: 18°   Visibility: 2mi
Dew Point: 16°   Wind: 16mph
Humidity: 93%   Direction: 330°NNW
Pressure: 29.54"   Gusts: 28mph
Location:  48.9026°N, 97.8187°W
Report Text: K2C8 232215Z AUTO 33014G24KT 2SM -SN OVC010 M08/M09 A2954 RMK AO2
Loading
Personal Weather Stations






























Interactive Weather Map New forecast layout! Learn more

10-Day Weather Forecast

Advertisements
Track Severe Weather on mobile